sensor_id;sensor_type;location;lat;lon;timestamp;temperature;humidity
16578;DHT22;8401;52.528;13.340;2023-05-07T00:00:26;10.00;99.90
16578;DHT22;8401;52.528;13.340;2023-05-07T00:02:52;10.20;99.90
16578;DHT22;8401;52.528;13.340;2023-05-07T00:05:18;10.00;99.90
16578;DHT22;8401;52.528;13.340;2023-05-07T00:07:44;10.20;99.90
16578;DHT22;8401;52.528;13.340;2023-05-07T00:10:10;10.30;99.90
16578;DHT22;8401;52.528;13.340;2023-05-07T00:12:37;10.30;99.90
16578;DHT22;8401;52.528;13.340;2023-05-07T00:15:03;10.20;99.90
16578;DHT22;8401;52.528;13.340;2023-05-07T00:17:30;10.20;99.90
16578;DHT22;8401;52.528;13.340;2023-05-07T00:19:56;10.20;99.90
16578;DHT22;8401;52.528;13.340;2023-05-07T00:22:22;10.30;99.90
16578;DHT22;8401;52.528;13.340;2023-05-07T00:24:47;10.40;99.90
16578;DHT22;8401;52.528;13.340;2023-05-07T00:27:13;10.30;99.90
16578;DHT22;8401;52.528;13.340;2023-05-07T00:29:39;10.30;99.90
16578;DHT22;8401;52.528;13.340;2023-05-07T00:32:04;10.20;99.90
16578;DHT22;8401;52.528;13.340;2023-05-07T00:34:30;10.10;99.90
16578;DHT22;8401;52.528;13.340;2023-05-07T00:36:56;10.00;99.90
16578;DHT22;8401;52.528;13.340;2023-05-07T00:39:21;10.10;99.90
16578;DHT22;8401;52.528;13.340;2023-05-07T00:41:47;10.20;99.90
16578;DHT22;8401;52.528;13.340;2023-05-07T00:44:13;10.20;99.90
16578;DHT22;8401;52.528;13.340;2023-05-07T00:46:40;10.20;99.90
16578;DHT22;8401;52.528;13.340;2023-05-07T00:49:06;10.20;99.90
16578;DHT22;8401;52.528;13.340;2023-05-07T00:51:32;10.30;99.90
16578;DHT22;8401;52.528;13.340;2023-05-07T00:53:59;10.30;99.90
16578;DHT22;8401;52.528;13.340;2023-05-07T00:56:26;10.30;99.90
16578;DHT22;8401;52.528;13.340;2023-05-07T00:58:52;10.20;99.90
16578;DHT22;8401;52.528;13.340;2023-05-07T01:01:17;10.10;99.90
16578;DHT22;8401;52.528;13.340;2023-05-07T01:03:43;10.30;99.90
16578;DHT22;8401;52.528;13.340;2023-05-07T01:06:10;10.30;99.90
16578;DHT22;8401;52.528;13.340;2023-05-07T01:08:41;10.30;99.90
16578;DHT22;8401;52.528;13.340;2023-05-07T01:11:07;10.20;99.90
16578;DHT22;8401;52.528;13.340;2023-05-07T01:13:35;10.20;99.90
16578;DHT22;8401;52.528;13.340;2023-05-07T01:16:00;10.20;99.90
16578;DHT22;8401;52.528;13.340;2023-05-07T01:18:26;10.20;99.90
16578;DHT22;8401;52.528;13.340;2023-05-07T01:20:52;10.20;99.90
16578;DHT22;8401;52.528;13.340;2023-05-07T01:23:19;10.20;99.90
16578;DHT22;8401;52.528;13.340;2023-05-07T01:25:51;10.10;99.90
16578;DHT22;8401;52.528;13.340;2023-05-07T01:28:18;10.10;99.90
16578;DHT22;8401;52.528;13.340;2023-05-07T01:30:48;10.10;99.90
16578;DHT22;8401;52.528;13.340;2023-05-07T01:33:18;10.10;99.90
16578;DHT22;8401;52.528;13.340;2023-05-07T01:35:48;10.20;99.90
16578;DHT22;8401;52.528;13.340;2023-05-07T01:38:14;10.20;99.90
16578;DHT22;8401;52.528;13.340;2023-05-07T01:40:40;10.00;99.90
16578;DHT22;8401;52.528;13.340;2023-05-07T01:43:06;9.90;99.90
16578;DHT22;8401;52.528;13.340;2023-05-07T01:45:32;10.10;99.90
16578;DHT22;8401;52.528;13.340;2023-05-07T01:47:59;10.20;99.90
16578;DHT22;8401;52.528;13.340;2023-05-07T01:50:25;10.10;99.90
16578;DHT22;8401;52.528;13.340;2023-05-07T01:52:51;10.10;99.90
16578;DHT22;8401;52.528;13.340;2023-05-07T01:55:17;10.10;99.90
16578;DHT22;8401;52.528;13.340;2023-05-07T01:57:42;10.20;99.90
16578;DHT22;8401;52.528;13.340;2023-05-07T02:00:08;10.30;99.90
16578;DHT22;8401;52.528;13.340;2023-05-07T02:02:35;10.30;99.90
16578;DHT22;8401;52.528;13.340;2023-05-07T02:05:00;10.20;99.90
16578;DHT22;8401;52.528;13.340;2023-05-07T02:07:27;10.20;99.90
16578;DHT22;8401;52.528;13.340;2023-05-07T02:09:53;10.00;99.90
16578;DHT22;8401;52.528;13.340;2023-05-07T02:12:21;10.20;99.90
16578;DHT22;8401;52.528;13.340;2023-05-07T02:14:46;10.20;99.90
16578;DHT22;8401;52.528;13.340;2023-05-07T02:17:12;10.20;99.90
16578;DHT22;8401;52.528;13.340;2023-05-07T02:19:38;10.30;99.90
16578;DHT22;8401;52.528;13.340;2023-05-07T02:22:03;10.20;99.90
16578;DHT22;8401;52.528;13.340;2023-05-07T02:24:29;10.20;99.90
16578;DHT22;8401;52.528;13.340;2023-05-07T02:26:55;10.20;99.90
16578;DHT22;8401;52.528;13.340;2023-05-07T02:29:20;10.10;99.90
16578;DHT22;8401;52.528;13.340;2023-05-07T02:31:46;10.00;99.90
16578;DHT22;8401;52.528;13.340;2023-05-07T02:34:16;9.90;99.90
16578;DHT22;8401;52.528;13.340;2023-05-07T02:36:42;10.00;99.90
16578;DHT22;8401;52.528;13.340;2023-05-07T02:39:07;10.10;99.90
16578;DHT22;8401;52.528;13.340;2023-05-07T02:41:33;10.20;99.90
16578;DHT22;8401;52.528;13.340;2023-05-07T02:43:59;10.20;99.90
16578;DHT22;8401;52.528;13.340;2023-05-07T02:46:24;10.20;99.90
16578;DHT22;8401;52.528;13.340;2023-05-07T02:48:50;10.30;99.90
16578;DHT22;8401;52.528;13.340;2023-05-07T02:51:19;10.20;99.90
16578;DHT22;8401;52.528;13.340;2023-05-07T02:53:45;10.20;99.90
16578;DHT22;8401;52.528;13.340;2023-05-07T02:56:11;10.10;99.90
16578;DHT22;8401;52.528;13.340;2023-05-07T02:58:37;10.10;99.90
16578;DHT22;8401;52.528;13.340;2023-05-07T03:01:05;10.10;99.90
16578;DHT22;8401;52.528;13.340;2023-05-07T03:03:31;10.00;99.90
16578;DHT22;8401;52.528;13.340;2023-05-07T03:05:56;10.00;99.90
16578;DHT22;8401;52.528;13.340;2023-05-07T03:08:22;10.10;99.90
16578;DHT22;8401;52.528;13.340;2023-05-07T03:10:48;10.20;99.90
16578;DHT22;8401;52.528;13.340;2023-05-07T03:13:14;10.20;99.90
16578;DHT22;8401;52.528;13.340;2023-05-07T03:15:40;10.30;99.90
16578;DHT22;8401;52.528;13.340;2023-05-07T03:18:05;10.10;99.90
16578;DHT22;8401;52.528;13.340;2023-05-07T03:20:31;10.20;99.90
16578;DHT22;8401;52.528;13.340;2023-05-07T03:22:57;10.20;99.90
16578;DHT22;8401;52.528;13.340;2023-05-07T03:25:23;10.20;99.90
16578;DHT22;8401;52.528;13.340;2023-05-07T03:27:49;10.10;99.90
16578;DHT22;8401;52.528;13.340;2023-05-07T03:30:14;10.10;99.90
16578;DHT22;8401;52.528;13.340;2023-05-07T03:32:40;10.10;99.90
16578;DHT22;8401;52.528;13.340;2023-05-07T03:35:06;10.10;99.90
16578;DHT22;8401;52.528;13.340;2023-05-07T03:37:32;10.10;99.90
16578;DHT22;8401;52.528;13.340;2023-05-07T03:39:58;10.00;99.90
16578;DHT22;8401;52.528;13.340;2023-05-07T03:42:24;10.00;99.90
16578;DHT22;8401;52.528;13.340;2023-05-07T03:44:49;10.00;99.90
16578;DHT22;8401;52.528;13.340;2023-05-07T03:47:15;9.90;99.90
16578;DHT22;8401;52.528;13.340;2023-05-07T03:49:41;10.10;99.90
16578;DHT22;8401;52.528;13.340;2023-05-07T03:52:06;10.10;99.90
16578;DHT22;8401;52.528;13.340;2023-05-07T03:54:32;10.10;99.90
16578;DHT22;8401;52.528;13.340;2023-05-07T03:56:58;10.10;99.90
16578;DHT22;8401;52.528;13.340;2023-05-07T03:59:24;10.20;99.90
16578;DHT22;8401;52.528;13.340;2023-05-07T04:01:49;10.00;99.90
16578;DHT22;8401;52.528;13.340;2023-05-07T04:04:15;10.20;99.90
16578;DHT22;8401;52.528;13.340;2023-05-07T04:06:41;10.20;99.90
16578;DHT22;8401;52.528;13.340;2023-05-07T04:09:07;10.10;99.90
16578;DHT22;8401;52.528;13.340;2023-05-07T04:11:33;10.10;99.90
16578;DHT22;8401;52.528;13.340;2023-05-07T04:13:59;10.10;99.90
16578;DHT22;8401;52.528;13.340;2023-05-07T04:16:24;10.10;99.90
16578;DHT22;8401;52.528;13.340;2023-05-07T04:18:50;10.10;99.90
16578;DHT22;8401;52.528;13.340;2023-05-07T04:21:20;10.00;99.90
16578;DHT22;8401;52.528;13.340;2023-05-07T04:23:46;10.20;99.90
16578;DHT22;8401;52.528;13.340;2023-05-07T04:26:12;10.10;99.90
16578;DHT22;8401;52.528;13.340;2023-05-07T04:28:38;10.20;99.90
16578;DHT22;8401;52.528;13.340;2023-05-07T04:31:04;10.00;99.90
16578;DHT22;8401;52.528;13.340;2023-05-07T04:33:31;9.90;99.90
16578;DHT22;8401;52.528;13.340;2023-05-07T04:35:57;10.10;99.90
16578;DHT22;8401;52.528;13.340;2023-05-07T04:38:22;10.00;99.90
16578;DHT22;8401;52.528;13.340;2023-05-07T04:40:49;10.20;99.90
16578;DHT22;8401;52.528;13.340;2023-05-07T04:43:14;10.20;99.90
16578;DHT22;8401;52.528;13.340;2023-05-07T04:45:41;10.20;99.90
16578;DHT22;8401;52.528;13.340;2023-05-07T04:48:08;10.00;99.90
16578;DHT22;8401;52.528;13.340;2023-05-07T04:50:34;10.20;99.90
16578;DHT22;8401;52.528;13.340;2023-05-07T04:53:00;10.10;99.90
16578;DHT22;8401;52.528;13.340;2023-05-07T04:55:26;10.20;99.90
16578;DHT22;8401;52.528;13.340;2023-05-07T04:57:53;10.10;99.90
16578;DHT22;8401;52.528;13.340;2023-05-07T05:00:18;10.30;99.90
16578;DHT22;8401;52.528;13.340;2023-05-07T05:02:45;10.50;99.90
16578;DHT22;8401;52.528;13.340;2023-05-07T05:05:11;10.50;99.90
16578;DHT22;8401;52.528;13.340;2023-05-07T05:07:37;10.50;99.90
16578;DHT22;8401;52.528;13.340;2023-05-07T05:10:04;10.40;99.90
16578;DHT22;8401;52.528;13.340;2023-05-07T05:12:31;10.20;99.90
16578;DHT22;8401;52.528;13.340;2023-05-07T05:14:56;10.30;99.90
16578;DHT22;8401;52.528;13.340;2023-05-07T05:17:23;10.20;99.90
16578;DHT22;8401;52.528;13.340;2023-05-07T05:19:48;10.40;99.90
16578;DHT22;8401;52.528;13.340;2023-05-07T05:22:14;10.60;99.90
16578;DHT22;8401;52.528;13.340;2023-05-07T05:24:40;10.60;99.90
16578;DHT22;8401;52.528;13.340;2023-05-07T05:27:06;10.70;99.90
16578;DHT22;8401;52.528;13.340;2023-05-07T05:29:31;10.80;99.90
16578;DHT22;8401;52.528;13.340;2023-05-07T05:31:57;10.80;99.90
16578;DHT22;8401;52.528;13.340;2023-05-07T05:34:23;10.80;99.90
16578;DHT22;8401;52.528;13.340;2023-05-07T05:36:48;10.50;99.90
16578;DHT22;8401;52.528;13.340;2023-05-07T05:39:14;10.70;99.90
16578;DHT22;8401;52.528;13.340;2023-05-07T05:41:40;10.70;99.90
16578;DHT22;8401;52.528;13.340;2023-05-07T05:44:06;10.70;99.90
16578;DHT22;8401;52.528;13.340;2023-05-07T05:46:32;10.60;99.90
16578;DHT22;8401;52.528;13.340;2023-05-07T05:48:57;10.80;99.90
16578;DHT22;8401;52.528;13.340;2023-05-07T05:51:23;10.90;99.90
16578;DHT22;8401;52.528;13.340;2023-05-07T05:53:49;10.80;99.90
16578;DHT22;8401;52.528;13.340;2023-05-07T05:56:15;10.70;99.90
16578;DHT22;8401;52.528;13.340;2023-05-07T05:58:41;10.70;99.90
16578;DHT22;8401;52.528;13.340;2023-05-07T06:01:07;10.80;99.90
16578;DHT22;8401;52.528;13.340;2023-05-07T06:03:33;10.90;99.90
16578;DHT22;8401;52.528;13.340;2023-05-07T06:05:58;10.80;99.90
16578;DHT22;8401;52.528;13.340;2023-05-07T06:08:29;11.10;99.90
16578;DHT22;8401;52.528;13.340;2023-05-07T06:10:55;11.00;99.90
16578;DHT22;8401;52.528;13.340;2023-05-07T06:13:21;10.90;99.90
16578;DHT22;8401;52.528;13.340;2023-05-07T06:15:46;10.90;99.90
16578;DHT22;8401;52.528;13.340;2023-05-07T06:18:12;10.90;99.90
16578;DHT22;8401;52.528;13.340;2023-05-07T06:20:38;10.90;99.90
16578;DHT22;8401;52.528;13.340;2023-05-07T06:23:04;11.10;99.90
16578;DHT22;8401;52.528;13.340;2023-05-07T06:25:29;11.10;99.90
16578;DHT22;8401;52.528;13.340;2023-05-07T06:27:55;11.20;99.90
16578;DHT22;8401;52.528;13.340;2023-05-07T06:30:20;11.30;99.90
16578;DHT22;8401;52.528;13.340;2023-05-07T06:32:46;11.30;99.90
16578;DHT22;8401;52.528;13.340;2023-05-07T06:35:12;11.20;99.90
16578;DHT22;8401;52.528;13.340;2023-05-07T06:37:38;11.30;99.90
16578;DHT22;8401;52.528;13.340;2023-05-07T06:40:05;11.40;99.90
16578;DHT22;8401;52.528;13.340;2023-05-07T06:42:32;11.50;99.90
16578;DHT22;8401;52.528;13.340;2023-05-07T06:44:58;11.60;99.90
16578;DHT22;8401;52.528;13.340;2023-05-07T06:47:23;11.60;99.90
16578;DHT22;8401;52.528;13.340;2023-05-07T06:49:49;11.60;99.90
16578;DHT22;8401;52.528;13.340;2023-05-07T06:52:15;11.60;99.90
16578;DHT22;8401;52.528;13.340;2023-05-07T06:54:44;11.50;99.90
16578;DHT22;8401;52.528;13.340;2023-05-07T06:57:09;11.50;99.90
16578;DHT22;8401;52.528;13.340;2023-05-07T06:59:35;11.70;99.90
16578;DHT22;8401;52.528;13.340;2023-05-07T07:02:00;11.80;99.90
16578;DHT22;8401;52.528;13.340;2023-05-07T07:04:26;11.90;99.90
16578;DHT22;8401;52.528;13.340;2023-05-07T07:06:53;12.10;99.90
16578;DHT22;8401;52.528;13.340;2023-05-07T07:09:19;12.10;99.90
16578;DHT22;8401;52.528;13.340;2023-05-07T07:11:45;12.20;99.90
16578;DHT22;8401;52.528;13.340;2023-05-07T07:14:10;12.40;99.90
16578;DHT22;8401;52.528;13.340;2023-05-07T07:16:36;12.70;99.90
16578;DHT22;8401;52.528;13.340;2023-05-07T07:19:02;12.80;99.90
16578;DHT22;8401;52.528;13.340;2023-05-07T07:21:27;12.80;99.90
16578;DHT22;8401;52.528;13.340;2023-05-07T07:23:53;12.80;99.90
16578;DHT22;8401;52.528;13.340;2023-05-07T07:26:19;12.70;99.90
16578;DHT22;8401;52.528;13.340;2023-05-07T07:28:47;12.50;99.90
16578;DHT22;8401;52.528;13.340;2023-05-07T07:31:13;13.00;99.90
16578;DHT22;8401;52.528;13.340;2023-05-07T07:33:39;13.00;99.90
16578;DHT22;8401;52.528;13.340;2023-05-07T07:36:05;13.00;99.90
16578;DHT22;8401;52.528;13.340;2023-05-07T07:38:31;13.70;99.90
16578;DHT22;8401;52.528;13.340;2023-05-07T07:40:57;14.10;99.90
16578;DHT22;8401;52.528;13.340;2023-05-07T07:43:23;14.30;99.90
16578;DHT22;8401;52.528;13.340;2023-05-07T07:45:48;14.40;99.90
16578;DHT22;8401;52.528;13.340;2023-05-07T07:48:14;14.30;99.90
16578;DHT22;8401;52.528;13.340;2023-05-07T07:50:39;14.40;99.90
16578;DHT22;8401;52.528;13.340;2023-05-07T07:53:05;14.40;99.90
16578;DHT22;8401;52.528;13.340;2023-05-07T07:55:31;14.50;99.90
16578;DHT22;8401;52.528;13.340;2023-05-07T07:57:57;14.80;99.90
16578;DHT22;8401;52.528;13.340;2023-05-07T08:00:23;15.00;99.90
16578;DHT22;8401;52.528;13.340;2023-05-07T08:02:48;15.40;99.90
16578;DHT22;8401;52.528;13.340;2023-05-07T08:05:15;15.70;99.90
16578;DHT22;8401;52.528;13.340;2023-05-07T08:07:40;15.10;99.90
16578;DHT22;8401;52.528;13.340;2023-05-07T08:10:06;16.00;99.90
16578;DHT22;8401;52.528;13.340;2023-05-07T08:12:32;16.80;99.90
16578;DHT22;8401;52.528;13.340;2023-05-07T08:14:58;17.40;99.90
16578;DHT22;8401;52.528;13.340;2023-05-07T08:17:24;18.70;99.90
16578;DHT22;8401;52.528;13.340;2023-05-07T08:19:50;19.80;99.90
16578;DHT22;8401;52.528;13.340;2023-05-07T08:22:15;20.00;99.90
16578;DHT22;8401;52.528;13.340;2023-05-07T08:24:43;19.90;99.90
16578;DHT22;8401;52.528;13.340;2023-05-07T08:27:08;20.10;99.90
16578;DHT22;8401;52.528;13.340;2023-05-07T08:29:34;20.90;99.90
16578;DHT22;8401;52.528;13.340;2023-05-07T08:32:00;21.40;99.90
16578;DHT22;8401;52.528;13.340;2023-05-07T08:34:25;21.10;99.90
16578;DHT22;8401;52.528;13.340;2023-05-07T08:36:51;21.40;99.90
16578;DHT22;8401;52.528;13.340;2023-05-07T08:39:16;22.10;99.90
16578;DHT22;8401;52.528;13.340;2023-05-07T08:41:45;22.40;99.90
16578;DHT22;8401;52.528;13.340;2023-05-07T08:44:12;22.50;99.90
16578;DHT22;8401;52.528;13.340;2023-05-07T08:46:39;22.10;99.90
16578;DHT22;8401;52.528;13.340;2023-05-07T08:49:07;22.40;99.90
16578;DHT22;8401;52.528;13.340;2023-05-07T08:51:33;23.00;99.90
16578;DHT22;8401;52.528;13.340;2023-05-07T08:53:59;23.50;99.90
16578;DHT22;8401;52.528;13.340;2023-05-07T08:56:26;23.00;99.90
16578;DHT22;8401;52.528;13.340;2023-05-07T08:58:52;22.60;99.90
16578;DHT22;8401;52.528;13.340;2023-05-07T09:01:21;21.80;99.90
16578;DHT22;8401;52.528;13.340;2023-05-07T09:03:47;21.10;99.90
16578;DHT22;8401;52.528;13.340;2023-05-07T09:06:13;20.60;99.90
16578;DHT22;8401;52.528;13.340;2023-05-07T09:08:39;19.90;99.90
16578;DHT22;8401;52.528;13.340;2023-05-07T09:11:04;21.50;99.90
16578;DHT22;8401;52.528;13.340;2023-05-07T09:13:30;22.20;99.90
16578;DHT22;8401;52.528;13.340;2023-05-07T09:15:56;22.70;99.90
16578;DHT22;8401;52.528;13.340;2023-05-07T09:18:24;22.30;99.90
16578;DHT22;8401;52.528;13.340;2023-05-07T09:20:50;22.50;99.90
16578;DHT22;8401;52.528;13.340;2023-05-07T09:23:16;22.10;99.90
16578;DHT22;8401;52.528;13.340;2023-05-07T09:25:42;21.60;99.90
16578;DHT22;8401;52.528;13.340;2023-05-07T09:28:07;21.50;99.90
16578;DHT22;8401;52.528;13.340;2023-05-07T09:30:35;22.00;99.90
16578;DHT22;8401;52.528;13.340;2023-05-07T09:33:03;21.60;99.90
16578;DHT22;8401;52.528;13.340;2023-05-07T09:35:29;21.20;99.90
16578;DHT22;8401;52.528;13.340;2023-05-07T09:37:56;22.10;99.90
16578;DHT22;8401;52.528;13.340;2023-05-07T09:40:24;22.70;99.90
16578;DHT22;8401;52.528;13.340;2023-05-07T09:42:50;21.20;99.90
16578;DHT22;8401;52.528;13.340;2023-05-07T09:45:24;21.70;99.90
16578;DHT22;8401;52.528;13.340;2023-05-07T09:47:54;22.70;99.90
16578;DHT22;8401;52.528;13.340;2023-05-07T09:51:09;23.10;99.90
16578;DHT22;8401;52.528;13.340;2023-05-07T09:53:09;23.70;99.90
16578;DHT22;8401;52.528;13.340;2023-05-07T09:55:36;23.30;99.90
16578;DHT22;8401;52.528;13.340;2023-05-07T09:58:04;22.30;99.90
16578;DHT22;8401;52.528;13.340;2023-05-07T10:00:31;21.60;99.90
16578;DHT22;8401;52.528;13.340;2023-05-07T10:02:58;21.80;99.90
16578;DHT22;8401;52.528;13.340;2023-05-07T10:05:26;21.40;99.90
16578;DHT22;8401;52.528;13.340;2023-05-07T10:07:53;20.90;99.90
16578;DHT22;8401;52.528;13.340;2023-05-07T10:10:19;20.20;99.90
16578;DHT22;8401;52.528;13.340;2023-05-07T10:12:45;20.10;99.90
16578;DHT22;8401;52.528;13.340;2023-05-07T10:15:12;20.20;99.90
16578;DHT22;8401;52.528;13.340;2023-05-07T10:17:40;21.00;99.90
16578;DHT22;8401;52.528;13.340;2023-05-07T10:20:07;20.10;99.90
16578;DHT22;8401;52.528;13.340;2023-05-07T10:22:39;20.90;99.90
16578;DHT22;8401;52.528;13.340;2023-05-07T10:25:14;21.20;99.90
16578;DHT22;8401;52.528;13.340;2023-05-07T10:27:40;20.80;99.90
16578;DHT22;8401;52.528;13.340;2023-05-07T10:33:03;20.70;99.90
16578;DHT22;8401;52.528;13.340;2023-05-07T10:35:37;20.10;99.90
16578;DHT22;8401;52.528;13.340;2023-05-07T10:38:04;19.80;99.90
16578;DHT22;8401;52.528;13.340;2023-05-07T10:40:31;19.50;99.90
16578;DHT22;8401;52.528;13.340;2023-05-07T10:42:58;19.30;99.90
16578;DHT22;8401;52.528;13.340;2023-05-07T10:45:28;20.00;99.90
16578;DHT22;8401;52.528;13.340;2023-05-07T10:50:34;21.50;99.90
16578;DHT22;8401;52.528;13.340;2023-05-07T10:55:50;20.70;99.90
16578;DHT22;8401;52.528;13.340;2023-05-07T11:00:48;19.60;99.90
16578;DHT22;8401;52.528;13.340;2023-05-07T11:03:14;19.50;99.90
16578;DHT22;8401;52.528;13.340;2023-05-07T11:05:41;19.70;99.90
16578;DHT22;8401;52.528;13.340;2023-05-07T11:08:07;19.80;99.90
16578;DHT22;8401;52.528;13.340;2023-05-07T11:10:50;20.30;99.90
16578;DHT22;8401;52.528;13.340;2023-05-07T11:13:17;21.80;99.90
16578;DHT22;8401;52.528;13.340;2023-05-07T11:15:44;21.90;99.90
16578;DHT22;8401;52.528;13.340;2023-05-07T11:18:12;21.20;99.90
16578;DHT22;8401;52.528;13.340;2023-05-07T11:20:55;20.70;99.90
16578;DHT22;8401;52.528;13.340;2023-05-07T11:26:10;22.50;99.90
16578;DHT22;8401;52.528;13.340;2023-05-07T11:28:41;23.40;99.90
16578;DHT22;8401;52.528;13.340;2023-05-07T11:31:07;23.30;99.90
16578;DHT22;8401;52.528;13.340;2023-05-07T11:33:34;22.30;99.90
16578;DHT22;8401;52.528;13.340;2023-05-07T11:36:02;22.10;99.90
16578;DHT22;8401;52.528;13.340;2023-05-07T11:38:35;21.70;99.90
16578;DHT22;8401;52.528;13.340;2023-05-07T11:41:01;20.70;99.90
16578;DHT22;8401;52.528;13.340;2023-05-07T11:43:28;20.50;99.90
16578;DHT22;8401;52.528;13.340;2023-05-07T11:45:53;21.10;99.90
16578;DHT22;8401;52.528;13.340;2023-05-07T11:48:21;20.50;99.90
16578;DHT22;8401;52.528;13.340;2023-05-07T11:51:00;20.20;99.90
16578;DHT22;8401;52.528;13.340;2023-05-07T11:53:26;20.80;99.90
16578;DHT22;8401;52.528;13.340;2023-05-07T11:55:53;21.20;99.90
16578;DHT22;8401;52.528;13.340;2023-05-07T11:58:24;21.60;99.90
16578;DHT22;8401;52.528;13.340;2023-05-07T12:00:54;21.00;99.90
16578;DHT22;8401;52.528;13.340;2023-05-07T12:03:20;20.20;99.90
16578;DHT22;8401;52.528;13.340;2023-05-07T12:05:47;20.20;99.90
16578;DHT22;8401;52.528;13.340;2023-05-07T12:08:20;19.70;99.90
16578;DHT22;8401;52.528;13.340;2023-05-07T12:10:50;19.40;99.90
16578;DHT22;8401;52.528;13.340;2023-05-07T12:13:16;19.10;99.90
16578;DHT22;8401;52.528;13.340;2023-05-07T12:15:43;19.10;99.90
16578;DHT22;8401;52.528;13.340;2023-05-07T12:18:10;19.20;99.90
16578;DHT22;8401;52.528;13.340;2023-05-07T12:20:37;19.10;99.90
16578;DHT22;8401;52.528;13.340;2023-05-07T12:23:03;19.00;99.90
16578;DHT22;8401;52.528;13.340;2023-05-07T12:25:34;18.90;99.90
16578;DHT22;8401;52.528;13.340;2023-05-07T12:28:00;18.70;99.90
16578;DHT22;8401;52.528;13.340;2023-05-07T12:30:26;18.70;99.90
16578;DHT22;8401;52.528;13.340;2023-05-07T12:32:55;18.80;99.90
16578;DHT22;8401;52.528;13.340;2023-05-07T12:35:31;19.20;99.90
16578;DHT22;8401;52.528;13.340;2023-05-07T12:37:57;19.40;99.90
16578;DHT22;8401;52.528;13.340;2023-05-07T12:40:35;19.60;99.90
16578;DHT22;8401;52.528;13.340;2023-05-07T12:43:00;19.70;99.90
16578;DHT22;8401;52.528;13.340;2023-05-07T12:45:26;19.60;99.90
16578;DHT22;8401;52.528;13.340;2023-05-07T12:47:52;19.60;99.90
16578;DHT22;8401;52.528;13.340;2023-05-07T12:50:17;18.90;99.90
16578;DHT22;8401;52.528;13.340;2023-05-07T12:52:45;18.50;99.90
16578;DHT22;8401;52.528;13.340;2023-05-07T12:55:13;18.30;99.90
16578;DHT22;8401;52.528;13.340;2023-05-07T12:57:45;18.20;99.90
16578;DHT22;8401;52.528;13.340;2023-05-07T13:00:11;18.20;99.90
16578;DHT22;8401;52.528;13.340;2023-05-07T13:02:38;18.50;99.90
16578;DHT22;8401;52.528;13.340;2023-05-07T13:05:05;18.90;99.90
16578;DHT22;8401;52.528;13.340;2023-05-07T13:07:30;18.80;99.90
16578;DHT22;8401;52.528;13.340;2023-05-07T13:09:56;18.50;99.90
16578;DHT22;8401;52.528;13.340;2023-05-07T13:12:21;18.60;99.90
16578;DHT22;8401;52.528;13.340;2023-05-07T13:14:47;18.90;99.90
16578;DHT22;8401;52.528;13.340;2023-05-07T13:17:13;18.70;99.90
16578;DHT22;8401;52.528;13.340;2023-05-07T13:19:38;18.90;99.90
16578;DHT22;8401;52.528;13.340;2023-05-07T13:22:05;18.80;99.90
16578;DHT22;8401;52.528;13.340;2023-05-07T13:24:30;18.70;99.90
16578;DHT22;8401;52.528;13.340;2023-05-07T13:26:56;18.60;99.90
16578;DHT22;8401;52.528;13.340;2023-05-07T13:29:22;18.50;99.90
16578;DHT22;8401;52.528;13.340;2023-05-07T13:31:54;18.50;99.90
16578;DHT22;8401;52.528;13.340;2023-05-07T13:34:20;18.30;99.90
16578;DHT22;8401;52.528;13.340;2023-05-07T13:36:46;18.20;99.90
16578;DHT22;8401;52.528;13.340;2023-05-07T13:39:11;18.20;99.90
16578;DHT22;8401;52.528;13.340;2023-05-07T13:41:37;18.40;99.90
16578;DHT22;8401;52.528;13.340;2023-05-07T13:44:02;18.50;99.90
16578;DHT22;8401;52.528;13.340;2023-05-07T13:46:28;18.60;99.90
16578;DHT22;8401;52.528;13.340;2023-05-07T13:48:55;18.70;99.90
16578;DHT22;8401;52.528;13.340;2023-05-07T13:51:21;18.70;99.90
16578;DHT22;8401;52.528;13.340;2023-05-07T13:53:47;18.80;99.90
16578;DHT22;8401;52.528;13.340;2023-05-07T13:56:13;18.60;99.90
16578;DHT22;8401;52.528;13.340;2023-05-07T13:58:39;18.50;99.90
16578;DHT22;8401;52.528;13.340;2023-05-07T14:01:05;18.40;99.90
16578;DHT22;8401;52.528;13.340;2023-05-07T14:03:31;18.40;99.90
16578;DHT22;8401;52.528;13.340;2023-05-07T14:06:00;18.10;99.90
16578;DHT22;8401;52.528;13.340;2023-05-07T14:08:27;18.20;99.90
16578;DHT22;8401;52.528;13.340;2023-05-07T14:10:53;18.20;99.90
16578;DHT22;8401;52.528;13.340;2023-05-07T14:13:19;18.20;99.90
16578;DHT22;8401;52.528;13.340;2023-05-07T14:15:45;18.40;99.90
16578;DHT22;8401;52.528;13.340;2023-05-07T14:18:12;18.30;99.90
16578;DHT22;8401;52.528;13.340;2023-05-07T14:20:38;18.20;99.90
16578;DHT22;8401;52.528;13.340;2023-05-07T14:23:04;18.30;99.90
16578;DHT22;8401;52.528;13.340;2023-05-07T14:25:30;18.30;99.90
16578;DHT22;8401;52.528;13.340;2023-05-07T14:27:55;18.10;99.90
16578;DHT22;8401;52.528;13.340;2023-05-07T14:30:21;17.90;99.90
16578;DHT22;8401;52.528;13.340;2023-05-07T14:32:49;17.70;99.90
16578;DHT22;8401;52.528;13.340;2023-05-07T14:35:15;17.50;99.90
16578;DHT22;8401;52.528;13.340;2023-05-07T14:37:41;17.60;99.90
16578;DHT22;8401;52.528;13.340;2023-05-07T14:40:08;17.60;99.90
16578;DHT22;8401;52.528;13.340;2023-05-07T14:42:34;18.00;99.90
16578;DHT22;8401;52.528;13.340;2023-05-07T14:44:59;18.00;99.90
16578;DHT22;8401;52.528;13.340;2023-05-07T14:47:25;17.90;99.90
16578;DHT22;8401;52.528;13.340;2023-05-07T14:49:51;17.50;99.90
16578;DHT22;8401;52.528;13.340;2023-05-07T14:52:17;17.20;99.90
16578;DHT22;8401;52.528;13.340;2023-05-07T14:54:42;17.20;99.90
16578;DHT22;8401;52.528;13.340;2023-05-07T14:57:09;17.40;99.90
16578;DHT22;8401;52.528;13.340;2023-05-07T14:59:37;17.50;99.90
16578;DHT22;8401;52.528;13.340;2023-05-07T15:02:02;17.50;99.90
16578;DHT22;8401;52.528;13.340;2023-05-07T15:04:30;17.20;99.90
16578;DHT22;8401;52.528;13.340;2023-05-07T15:06:56;17.10;99.90
16578;DHT22;8401;52.528;13.340;2023-05-07T15:09:21;17.10;99.90
16578;DHT22;8401;52.528;13.340;2023-05-07T15:11:47;17.10;99.90
16578;DHT22;8401;52.528;13.340;2023-05-07T15:14:13;17.00;99.90
16578;DHT22;8401;52.528;13.340;2023-05-07T15:16:38;17.10;99.90
16578;DHT22;8401;52.528;13.340;2023-05-07T15:19:04;17.20;99.90
16578;DHT22;8401;52.528;13.340;2023-05-07T15:21:30;17.40;99.90
16578;DHT22;8401;52.528;13.340;2023-05-07T15:23:58;17.50;99.90
16578;DHT22;8401;52.528;13.340;2023-05-07T15:26:24;17.60;99.90
16578;DHT22;8401;52.528;13.340;2023-05-07T15:28:50;17.70;99.90
16578;DHT22;8401;52.528;13.340;2023-05-07T15:31:15;17.90;99.90
16578;DHT22;8401;52.528;13.340;2023-05-07T15:33:42;18.00;99.90
16578;DHT22;8401;52.528;13.340;2023-05-07T15:36:08;18.10;99.90
16578;DHT22;8401;52.528;13.340;2023-05-07T15:38:34;17.90;99.90